Time;durP1;ratioP1;P1;durP2;ratioP2;P2;SDS_P1;SDS_P2;PMS_P1;PMS_P2;Temp;Humidity;BMP_temperature;BMP_pressure;BME280_temperature;BME280_humidity;BME280_pressure;Samples;Min_cycle;Max_cycle;Signal;HPM_P1;HPM_P2
2022/03/04 00:00:07;;;;;;;;;;;;;;;;;;6218326;22;19926;-84
2022/03/04 00:02:34;;;;;;;;;;;;;;;;;;6218004;22;19927;-84
2022/03/04 00:05:01;;;;;;;;;;;;;;;;;;6218100;22;20304;-84
2022/03/04 00:07:28;;;;;;;;;;;;;;;;;;6243380;22;19920;-85
2022/03/04 00:09:56;;;;;;;;;;;;;;;;;;6217236;22;20368;-84
2022/03/04 00:12:23;;;;;;;;;;;;;;;;;;6217310;22;20342;-84
2022/03/04 00:14:50;;;;;;;;;;;;;;;;;;6217305;22;19919;-84
2022/03/04 00:17:18;;;;;;;;;;;;;;;;;;6217861;22;19919;-85
2022/03/04 00:19:45;;;;;;;;;;;;;;;;;;6218037;22;20244;-84
2022/03/04 00:22:12;;;;;;;;;;;;;;;;;;6217403;22;19919;-84
2022/03/04 00:24:39;;;;;;;;;;;;;;;;;;6242796;22;19927;-84
2022/03/04 00:27:07;;;;;;;;;;;;;;;;;;6242162;22;19994;-84
2022/03/04 00:29:34;;;;;;;;;;;;;;;;;;6217257;22;19994;-85
2022/03/04 00:32:08;;;;;;;;;;;;;;;;;;6217943;22;19930;-84
2022/03/04 00:34:35;;;;;;;;;;;;;;;;;;6242163;22;19965;-84
2022/03/04 00:37:02;;;;;;;;;;;;;;;;;;6241717;22;19915;-85
2022/03/04 00:39:29;;;;;;;;;;;;;;;;;;6240605;22;19969;-84
2022/03/04 00:41:56;;;;;;;;;;;;;;;;;;6214982;22;19916;-85
2022/03/04 00:44:23;;;;;;;;;;;;;;;;;;6217738;22;19985;-85
2022/03/04 00:46:50;;;;;;;;;;;;;;;;;;6216640;22;19915;-84
2022/03/04 00:49:18;;;;;;;;;;;;;;;;;;6240817;22;19915;-84
2022/03/04 00:51:45;;;;;;;;;;;;;;;;;;6216252;22;19942;-84
2022/03/04 00:54:12;;;;;;;;;;;;;;;;;;6216126;22;19954;-83
2022/03/04 00:56:38;;;;;;;;;;;;;;;;;;6240699;22;20256;-84
2022/03/04 00:59:05;;;;;;;;;;;;;;;;;;6215434;22;19976;-84
2022/03/04 01:01:32;;;;;;;;;;;;;;;;;;6215652;22;19915;-84
2022/03/04 01:04:00;;;;;;;;;;;;;;;;;;6216337;22;19923;-84
2022/03/04 01:06:27;;;;;;;;;;;;;;;;;;6215714;22;19919;-84
2022/03/04 01:08:54;;;;;;;;;;;;;;;;;;6240223;22;20248;-84
2022/03/04 01:11:21;;;;;;;;;;;;;;;;;;6241371;22;19926;-85
2022/03/04 01:13:48;;;;;;;;;;;;;;;;;;6240291;22;19951;-84
2022/03/04 01:16:15;;;;;;;;;;;;;;;;;;6215357;22;19922;-84
2022/03/04 01:18:42;;;;;;;;;;;;;;;;;;6216303;22;20255;-84
2022/03/04 01:21:09;;;;;;;;;;;;;;;;;;6241457;22;19930;-84
2022/03/04 01:23:36;;;;;;;;;;;;;;;;;;6215402;22;19991;-84
2022/03/04 01:26:04;;;;;;;;;;;;;;;;;;6215545;22;19942;-84
2022/03/04 01:28:31;;;;;;;;;;;;;;;;;;6215440;22;19915;-84
2022/03/04 01:30:58;;;;;;;;;;;;;;;;;;6240925;22;19923;-84
2022/03/04 01:33:24;;;;;;;;;;;;;;;;;;6240154;22;20581;-84
2022/03/04 01:35:52;;;;;;;;;;;;;;;;;;6264887;22;19969;-84
2022/03/04 01:38:19;;;;;;;;;;;;;;;;;;6239556;22;19926;-84
2022/03/04 01:40:46;;;;;;;;;;;;;;;;;;6267196;22;20328;-83
2022/03/04 01:43:13;;;;;;;;;;;;;;;;;;6240515;22;19927;-84
2022/03/04 01:45:40;;;;;;;;;;;;;;;;;;6241306;22;19919;-84
2022/03/04 01:48:07;;;;;;;;;;;;;;;;;;6241082;22;19990;-84
2022/03/04 01:50:35;;;;;;;;;;;;;;;;;;6240691;22;20026;-84
2022/03/04 01:53:03;;;;;;;;;;;;;;;;;;6239726;22;19929;-84
2022/03/04 01:55:30;;;;;;;;;;;;;;;;;;6241446;22;19919;-84
2022/03/04 01:57:57;;;;;;;;;;;;;;;;;;6240899;22;19915;-84
2022/03/04 02:00:24;;;;;;;;;;;;;;;;;;6240726;22;19981;-84
2022/03/04 02:02:51;;;;;;;;;;;;;;;;;;6241565;22;19973;-84
2022/03/04 02:05:18;;;;;;;;;;;;;;;;;;6241307;22;19919;-83
2022/03/04 02:07:45;;;;;;;;;;;;;;;;;;6241262;22;20334;-84
2022/03/04 02:10:13;;;;;;;;;;;;;;;;;;6240394;22;19994;-84
2022/03/04 02:12:40;;;;;;;;;;;;;;;;;;6239870;22;19946;-84
2022/03/04 02:15:07;;;;;;;;;;;;;;;;;;6240185;22;19919;-84
2022/03/04 02:17:34;;;;;;;;;;;;;;;;;;6239356;22;20339;-84
2022/03/04 02:20:03;;;;;;;;;;;;;;;;;;6239695;22;19962;-84
2022/03/04 02:22:31;;;;;;;;;;;;;;;;;;6241291;22;19953;-83
2022/03/04 02:24:58;;;;;;;;;;;;;;;;;;6240462;22;20315;-84
2022/03/04 02:27:25;;;;;;;;;;;;;;;;;;6240434;22;19919;-84
2022/03/04 02:29:52;;;;;;;;;;;;;;;;;;6239440;22;19919;-84
2022/03/04 02:32:38;;;;;;;;;;;;;;;;;;6265852;22;20049;-84
2022/03/04 02:35:05;;;;;;;;;;;;;;;;;;6238695;22;19947;-84
2022/03/04 02:37:34;;;;;;;;;;;;;;;;;;6240922;22;19919;-83
2022/03/04 02:40:01;;;;;;;;;;;;;;;;;;6240469;22;19994;-84
2022/03/04 02:42:29;;;;;;;;;;;;;;;;;;6240987;22;19919;-84
2022/03/04 02:44:56;;;;;;;;;;;;;;;;;;6239322;22;19922;-84
2022/03/04 02:47:23;;;;;;;;;;;;;;;;;;6212526;22;19919;-83
2022/03/04 02:49:50;;;;;;;;;;;;;;;;;;6238321;22;19919;-84
2022/03/04 02:52:18;;;;;;;;;;;;;;;;;;6239013;22;19930;-84
2022/03/04 02:54:45;;;;;;;;;;;;;;;;;;6238424;22;19915;-84
2022/03/04 02:57:12;;;;;;;;;;;;;;;;;;6238227;22;19927;-84
2022/03/04 02:59:48;;;;;;;;;;;;;;;;;;6264218;22;19966;-84
2022/03/04 03:02:16;;;;;;;;;;;;;;;;;;6238592;22;19923;-84
2022/03/04 03:04:43;;;;;;;;;;;;;;;;;;6238970;22;19919;-84
2022/03/04 03:07:10;;;;;;;;;;;;;;;;;;6211658;22;20434;-83
2022/03/04 03:09:37;;;;;;;;;;;;;;;;;;6239093;22;19920;-83
2022/03/04 03:12:04;;;;;;;;;;;;;;;;;;6238937;22;19961;-84
2022/03/04 03:14:31;;;;;;;;;;;;;;;;;;6213722;22;20325;-84
2022/03/04 03:16:59;;;;;;;;;;;;;;;;;;6213177;22;19973;-84
2022/03/04 03:19:26;;;;;;;;;;;;;;;;;;6212281;22;19986;-84
2022/03/04 03:21:53;;;;;;;;;;;;;;;;;;6212890;22;20389;-84
2022/03/04 03:24:20;;;;;;;;;;;;;;;;;;6212945;22;20373;-84
2022/03/04 03:26:47;;;;;;;;;;;;;;;;;;6238958;22;19939;-84
2022/03/04 03:29:15;;;;;;;;;;;;;;;;;;6213944;22;20310;-84
2022/03/04 03:31:42;;;;;;;;;;;;;;;;;;6214161;22;19997;-84
2022/03/04 03:34:09;;;;;;;;;;;;;;;;;;6213372;22;20419;-85
2022/03/04 03:36:37;;;;;;;;;;;;;;;;;;6214666;22;19915;-84
2022/03/04 03:39:04;;;;;;;;;;;;;;;;;;6213077;22;19919;-85
2022/03/04 03:41:31;;;;;;;;;;;;;;;;;;6213029;22;19915;-84
2022/03/04 03:43:59;;;;;;;;;;;;;;;;;;6213124;22;19926;-84
2022/03/04 03:46:27;;;;;;;;;;;;;;;;;;6238867;22;20243;-84
2022/03/04 03:48:54;;;;;;;;;;;;;;;;;;6239906;22;19919;-84
2022/03/04 03:51:21;;;;;;;;;;;;;;;;;;6214760;22;19970;-84
2022/03/04 03:53:48;;;;;;;;;;;;;;;;;;6240364;22;20014;-84
2022/03/04 03:56:15;;;;;;;;;;;;;;;;;;6208995;23;19919;-84
2022/03/04 03:58:42;;;;;;;;;;;;;;;;;;6237540;22;19921;-84
2022/03/04 04:01:09;;;;;;;;;;;;;;;;;;6214777;22;19923;-84
2022/03/04 04:03:36;;;;;;;;;;;;;;;;;;6214888;22;19919;-84
2022/03/04 04:06:03;;;;;;;;;;;;;;;;;;6213994;22;19946;-84
2022/03/04 04:08:31;;;;;;;;;;;;;;;;;;6239421;22;19979;-84
2022/03/04 04:10:58;;;;;;;;;;;;;;;;;;6214994;22;19920;-84
2022/03/04 04:13:25;;;;;;;;;;;;;;;;;;6214617;22;19919;-84
2022/03/04 04:15:53;;;;;;;;;;;;;;;;;;6241633;22;19939;-84
2022/03/04 04:18:20;;;;;;;;;;;;;;;;;;6268702;22;19919;-84
2022/03/04 04:20:47;;;;;;;;;;;;;;;;;;6241428;22;20359;-84
2022/03/04 04:23:15;;;;;;;;;;;;;;;;;;6215105;22;20542;-84
2022/03/04 04:25:42;;;;;;;;;;;;;;;;;;6241431;22;19946;-84
2022/03/04 04:28:09;;;;;;;;;;;;;;;;;;6215565;22;19923;-84
2022/03/04 04:30:37;;;;;;;;;;;;;;;;;;6240283;22;20015;-84
2022/03/04 04:33:04;;;;;;;;;;;;;;;;;;6241301;22;19927;-84
2022/03/04 04:35:31;;;;;;;;;;;;;;;;;;6216045;22;19990;-84
2022/03/04 04:37:58;;;;;;;;;;;;;;;;;;6215739;22;20025;-84
2022/03/04 04:40:24;;;;;;;;;;;;;;;;;;6266881;22;19964;-84
2022/03/04 04:42:52;;;;;;;;;;;;;;;;;;6217378;22;20002;-84
2022/03/04 04:45:19;;;;;;;;;;;;;;;;;;6216020;22;19923;-84
2022/03/04 04:47:46;;;;;;;;;;;;;;;;;;6240141;22;20685;-84
2022/03/04 04:50:14;;;;;;;;;;;;;;;;;;6241231;22;20029;-85
2022/03/04 04:52:41;;;;;;;;;;;;;;;;;;6241323;22;19919;-84
2022/03/04 04:55:08;;;;;;;;;;;;;;;;;;6241246;22;19919;-84
2022/03/04 04:57:36;;;;;;;;;;;;;;;;;;6215786;22;19915;-84
2022/03/04 05:00:03;;;;;;;;;;;;;;;;;;6241308;22;20151;-84
2022/03/04 05:02:30;;;;;;;;;;;;;;;;;;6215561;22;19919;-84
2022/03/04 05:04:57;;;;;;;;;;;;;;;;;;6224746;23;20814;-84
2022/03/04 05:07:25;;;;;;;;;;;;;;;;;;6236647;23;20239;-84
2022/03/04 05:09:51;;;;;;;;;;;;;;;;;;6215309;22;19957;-84
2022/03/04 05:12:18;;;;;;;;;;;;;;;;;;6214371;22;19923;-84
2022/03/04 05:14:45;;;;;;;;;;;;;;;;;;6214138;22;20009;-84
2022/03/04 05:17:13;;;;;;;;;;;;;;;;;;6214075;22;20296;-84
2022/03/04 05:19:40;;;;;;;;;;;;;;;;;;6215267;22;19919;-84
2022/03/04 05:22:07;;;;;;;;;;;;;;;;;;6241107;22;19919;-84
2022/03/04 05:24:35;;;;;;;;;;;;;;;;;;6241400;22;19915;-85
2022/03/04 05:27:02;;;;;;;;;;;;;;;;;;6216800;22;19993;-85
2022/03/04 05:29:29;;;;;;;;;;;;;;;;;;6218182;22;20228;-84
2022/03/04 05:31:56;;;;;;;;;;;;;;;;;;6215085;22;20429;-85
2022/03/04 05:34:23;;;;;;;;;;;;;;;;;;6241178;22;19919;-84
2022/03/04 05:36:50;;;;;;;;;;;;;;;;;;6215906;22;20374;-85
2022/03/04 05:39:17;;;;;;;;;;;;;;;;;;6216573;22;19919;-84
2022/03/04 05:41:44;;;;;;;;;;;;;;;;;;6241869;22;19945;-85
2022/03/04 05:44:12;;;;;;;;;;;;;;;;;;6241444;22;19919;-84
2022/03/04 05:46:39;;;;;;;;;;;;;;;;;;6216015;22;20430;-84
2022/03/04 05:49:06;;;;;;;;;;;;;;;;;;6240827;22;19920;-85
2022/03/04 05:51:33;;;;;;;;;;;;;;;;;;6242234;22;19931;-84
2022/03/04 05:54:00;;;;;;;;;;;;;;;;;;6240919;22;19919;-84
2022/03/04 05:56:28;;;;;;;;;;;;;;;;;;6240622;22;20308;-84
2022/03/04 05:58:55;;;;;;;;;;;;;;;;;;6241665;22;20014;-83
2022/03/04 06:01:22;;;;;;;;;;;;;;;;;;6240483;22;19934;-84
2022/03/04 06:03:50;;;;;;;;;;;;;;;;;;6241756;22;19919;-84
2022/03/04 06:06:17;;;;;;;;;;;;;;;;;;6215421;22;19915;-84
2022/03/04 06:08:44;;;;;;;;;;;;;;;;;;6240880;22;19916;-84
2022/03/04 06:11:11;;;;;;;;;;;;;;;;;;6241040;22;20541;-84
2022/03/04 06:13:39;;;;;;;;;;;;;;;;;;6217045;22;20563;-84
2022/03/04 06:16:06;;;;;;;;;;;;;;;;;;6242647;22;19934;-84
2022/03/04 06:18:33;;;;;;;;;;;;;;;;;;6216326;22;19965;-84
2022/03/04 06:21:00;;;;;;;;;;;;;;;;;;6216429;22;19966;-84
2022/03/04 06:23:27;;;;;;;;;;;;;;;;;;6214723;22;19919;-84
2022/03/04 06:25:55;;;;;;;;;;;;;;;;;;6214485;22;19915;-84
2022/03/04 06:28:23;;;;;;;;;;;;;;;;;;6241291;22;19930;-84
2022/03/04 06:30:56;;;;;;;;;;;;;;;;;;6218604;22;20002;-84
2022/03/04 06:33:37;;;;;;;;;;;;;;;;;;6244654;22;19923;-84
2022/03/04 06:36:04;;;;;;;;;;;;;;;;;;6243455;22;19923;-84
2022/03/04 06:38:45;;;;;;;;;;;;;;;;;;6176033;23;19916;-84
2022/03/04 06:41:13;;;;;;;;;;;;;;;;;;6152562;23;19927;-85
2022/03/04 06:43:40;;;;;;;;;;;;;;;;;;6151047;23;19952;-85
2022/03/04 06:46:08;;;;;;;;;;;;;;;;;;6128329;23;19920;-85
2022/03/04 06:48:35;;;;;;;;;;;;;;;;;;6126875;23;20269;-85
2022/03/04 06:51:03;;;;;;;;;;;;;;;;;;6126593;23;20647;-85
2022/03/04 06:53:30;;;;;;;;;;;;;;;;;;6128462;23;19920;-85
2022/03/04 06:55:57;;;;;;;;;;;;;;;;;;6149761;23;19921;-84
2022/03/04 06:58:24;;;;;;;;;;;;;;;;;;6128372;23;19987;-84
2022/03/04 07:00:51;;;;;;;;;;;;;;;;;;6126625;23;20644;-84
2022/03/04 07:03:19;;;;;;;;;;;;;;;;;;6151568;23;19916;-85
2022/03/04 07:05:46;;;;;;;;;;;;;;;;;;6150275;23;19975;-85
2022/03/04 07:08:12;;;;;;;;;;;;;;;;;;6128704;23;20244;-85
2022/03/04 07:10:39;;;;;;;;;;;;;;;;;;6207338;23;19928;-84
2022/03/04 07:13:06;;;;;;;;;;;;;;;;;;6214978;23;19980;-85
2022/03/04 07:15:32;;;;;;;;;;;;;;;;;;6215477;23;20001;-85
2022/03/04 07:17:58;;;;;;;;;;;;;;;;;;6216064;23;20336;-85
2022/03/04 07:20:24;;;;;;;;;;;;;;;;;;6216445;23;19980;-85
2022/03/04 07:22:50;;;;;;;;;;;;;;;;;;6217915;23;19931;-85
2022/03/04 07:25:16;;;;;;;;;;;;;;;;;;6218210;23;19992;-84
2022/03/04 07:27:42;;;;;;;;;;;;;;;;;;6218517;23;19916;-85
2022/03/04 07:30:11;;;;;;;;;;;;;;;;;;6217755;23;20352;-85
2022/03/04 07:32:37;;;;;;;;;;;;;;;;;;6218409;23;19919;-85
2022/03/04 07:35:03;;;;;;;;;;;;;;;;;;6217996;23;20342;-85
2022/03/04 07:37:28;;;;;;;;;;;;;;;;;;6217949;23;20350;-84
2022/03/04 07:39:56;;;;;;;;;;;;;;;;;;6191276;23;20344;-85
2022/03/04 07:42:23;;;;;;;;;;;;;;;;;;6215286;23;20325;-85
2022/03/04 07:44:50;;;;;;;;;;;;;;;;;;6215003;23;19923;-86
2022/03/04 07:47:16;;;;;;;;;;;;;;;;;;6215595;23;19920;-86
2022/03/04 07:49:42;;;;;;;;;;;;;;;;;;6214392;23;19923;-86
2022/03/04 07:52:08;;;;;;;;;;;;;;;;;;6214426;23;19962;-87
2022/03/04 07:54:34;;;;;;;;;;;;;;;;;;6214780;23;20240;-86
2022/03/04 07:57:00;;;;;;;;;;;;;;;;;;6234196;22;19990;-85
2022/03/04 07:59:26;;;;;;;;;;;;;;;;;;6245067;22;19937;-86
2022/03/04 08:01:52;;;;;;;;;;;;;;;;;;6245445;22;19916;-85
2022/03/04 08:04:18;;;;;;;;;;;;;;;;;;6247011;22;19943;-86
2022/03/04 08:06:44;;;;;;;;;;;;;;;;;;6247492;22;19922;-86
2022/03/04 08:09:10;;;;;;;;;;;;;;;;;;6246783;22;19969;-85
2022/03/04 08:11:36;;;;;;;;;;;;;;;;;;6246193;22;19927;-85
2022/03/04 08:14:02;;;;;;;;;;;;;;;;;;6246028;22;19936;-84
2022/03/04 08:16:29;;;;;;;;;;;;;;;;;;6247004;22;19930;-84
2022/03/04 08:18:56;;;;;;;;;;;;;;;;;;6244055;22;19915;-85
2022/03/04 08:21:23;;;;;;;;;;;;;;;;;;6244359;22;19934;-85
2022/03/04 08:23:49;;;;;;;;;;;;;;;;;;6245057;22;19923;-85
2022/03/04 08:26:15;;;;;;;;;;;;;;;;;;6219885;22;19915;-84
2022/03/04 08:28:41;;;;;;;;;;;;;;;;;;6218457;22;19926;-84
2022/03/04 08:31:11;;;;;;;;;;;;;;;;;;6220452;22;19924;-85
2022/03/04 08:33:37;;;;;;;;;;;;;;;;;;6219529;22;19962;-85
2022/03/04 08:36:03;;;;;;;;;;;;;;;;;;6220090;22;20289;-85
2022/03/04 08:38:29;;;;;;;;;;;;;;;;;;6218496;22;19950;-84
2022/03/04 08:40:55;;;;;;;;;;;;;;;;;;6231308;22;19969;-85
2022/03/04 08:43:20;;;;;;;;;;;;;;;;;;6244776;22;19916;-85
2022/03/04 08:45:46;;;;;;;;;;;;;;;;;;6244924;22;20430;-85
2022/03/04 08:48:12;;;;;;;;;;;;;;;;;;6244162;22;19980;-85
2022/03/04 08:50:39;;;;;;;;;;;;;;;;;;6244664;22;19923;-85
2022/03/04 08:53:05;;;;;;;;;;;;;;;;;;6243240;22;19961;-85
2022/03/04 08:55:31;;;;;;;;;;;;;;;;;;6244437;22;19919;-85
2022/03/04 08:57:57;;;;;;;;;;;;;;;;;;6218815;22;19993;-85
2022/03/04 09:00:23;;;;;;;;;;;;;;;;;;6219574;22;20330;-84
2022/03/04 09:02:49;;;;;;;;;;;;;;;;;;6219228;22;19915;-84
2022/03/04 09:05:15;;;;;;;;;;;;;;;;;;6218523;22;20002;-84
2022/03/04 09:07:41;;;;;;;;;;;;;;;;;;6243852;22;19969;-84
2022/03/04 09:10:07;;;;;;;;;;;;;;;;;;6219089;22;19926;-84
2022/03/04 09:12:33;;;;;;;;;;;;;;;;;;6218530;22;20288;-85
2022/03/04 09:14:59;;;;;;;;;;;;;;;;;;6218289;22;19998;-84
2022/03/04 09:17:25;;;;;;;;;;;;;;;;;;6219524;22;19915;-84
2022/03/04 09:19:51;;;;;;;;;;;;;;;;;;6218552;22;19915;-84
2022/03/04 09:22:17;;;;;;;;;;;;;;;;;;6245646;22;19927;-84
2022/03/04 09:24:44;;;;;;;;;;;;;;;;;;6218913;22;19919;-84
2022/03/04 09:27:10;;;;;;;;;;;;;;;;;;6218234;22;20010;-84
2022/03/04 09:29:36;;;;;;;;;;;;;;;;;;6218519;22;19919;-84
2022/03/04 09:32:02;;;;;;;;;;;;;;;;;;6243955;22;19962;-84
2022/03/04 09:34:28;;;;;;;;;;;;;;;;;;6244399;22;19931;-83
2022/03/04 09:36:54;;;;;;;;;;;;;;;;;;6244019;22;19927;-84
2022/03/04 09:39:20;;;;;;;;;;;;;;;;;;6244356;22;19923;-83
2022/03/04 09:41:46;;;;;;;;;;;;;;;;;;6218737;22;19919;-83
2022/03/04 09:44:12;;;;;;;;;;;;;;;;;;6242518;22;19923;-83
2022/03/04 09:46:38;;;;;;;;;;;;;;;;;;6243669;22;20254;-83
2022/03/04 09:49:04;;;;;;;;;;;;;;;;;;6242991;22;20021;-84
2022/03/04 09:51:30;;;;;;;;;;;;;;;;;;6219329;22;19959;-83
2022/03/04 09:53:56;;;;;;;;;;;;;;;;;;6245919;22;19926;-83
2022/03/04 09:56:22;;;;;;;;;;;;;;;;;;6220051;22;19920;-84
2022/03/04 09:58:48;;;;;;;;;;;;;;;;;;6220751;22;20355;-83
2022/03/04 10:01:14;;;;;;;;;;;;;;;;;;6246203;22;20368;-83
2022/03/04 10:03:40;;;;;;;;;;;;;;;;;;6246126;22;19922;-83
2022/03/04 10:06:06;;;;;;;;;;;;;;;;;;6245873;22;19961;-83
2022/03/04 10:08:32;;;;;;;;;;;;;;;;;;6246035;22;20326;-82
2022/03/04 10:10:58;;;;;;;;;;;;;;;;;;6246302;22;19957;-84
2022/03/04 10:13:24;;;;;;;;;;;;;;;;;;6246060;22;19923;-82
2022/03/04 10:15:50;;;;;;;;;;;;;;;;;;6220734;22;19958;-83
2022/03/04 10:18:18;;;;;;;;;;;;;;;;;;6220978;22;19915;-84
2022/03/04 10:20:44;;;;;;;;;;;;;;;;;;6221602;22;19922;-83
2022/03/04 10:23:10;;;;;;;;;;;;;;;;;;6245585;22;19981;-84
2022/03/04 10:25:36;;;;;;;;;;;;;;;;;;6245735;22;20308;-84
2022/03/04 10:28:02;;;;;;;;;;;;;;;;;;6245492;22;20328;-84
2022/03/04 10:30:27;;;;;;;;;;;;;;;;;;6220946;22;19919;-83
2022/03/04 10:32:55;;;;;;;;;;;;;;;;;;6245712;22;20383;-84
2022/03/04 10:35:22;;;;;;;;;;;;;;;;;;6220563;22;19973;-84
2022/03/04 10:37:51;;;;;;;;;;;;;;;;;;6220909;22;20291;-84
2022/03/04 10:40:17;;;;;;;;;;;;;;;;;;6245861;22;19976;-83
2022/03/04 10:42:43;;;;;;;;;;;;;;;;;;6245470;22;20360;-84
2022/03/04 10:45:09;;;;;;;;;;;;;;;;;;6245705;22;19943;-83
2022/03/04 10:47:34;;;;;;;;;;;;;;;;;;6220874;22;19942;-84
2022/03/04 10:50:00;;;;;;;;;;;;;;;;;;6244564;22;19950;-83
2022/03/04 10:52:26;;;;;;;;;;;;;;;;;;6243760;22;19923;-84
2022/03/04 10:54:52;;;;;;;;;;;;;;;;;;6217996;22;20308;-84
2022/03/04 10:57:20;;;;;;;;;;;;;;;;;;6244666;22;20205;-83
2022/03/04 10:59:46;;;;;;;;;;;;;;;;;;6219592;22;19945;-84
2022/03/04 11:02:12;;;;;;;;;;;;;;;;;;6219940;22;19915;-84
2022/03/04 11:04:38;;;;;;;;;;;;;;;;;;6246549;22;19974;-84
2022/03/04 11:07:04;;;;;;;;;;;;;;;;;;6245280;22;19923;-84
2022/03/04 11:09:30;;;;;;;;;;;;;;;;;;6245910;22;19947;-83
2022/03/04 11:11:56;;;;;;;;;;;;;;;;;;6243762;22;19919;-84
2022/03/04 11:14:22;;;;;;;;;;;;;;;;;;6244568;22;19923;-84
2022/03/04 11:16:48;;;;;;;;;;;;;;;;;;6222127;22;19919;-84
2022/03/04 11:19:14;;;;;;;;;;;;;;;;;;6246707;22;19919;-84
2022/03/04 11:21:40;;;;;;;;;;;;;;;;;;6242621;22;19942;-84
2022/03/04 11:24:06;;;;;;;;;;;;;;;;;;6217537;22;20332;-83
2022/03/04 11:26:32;;;;;;;;;;;;;;;;;;6243757;22;19919;-84
2022/03/04 11:29:00;;;;;;;;;;;;;;;;;;6243761;22;20256;-84
2022/03/04 11:31:26;;;;;;;;;;;;;;;;;;6244953;22;20301;-83
2022/03/04 11:33:52;;;;;;;;;;;;;;;;;;6240356;22;19939;-84
2022/03/04 11:36:18;;;;;;;;;;;;;;;;;;6244736;22;19963;-84
2022/03/04 11:38:44;;;;;;;;;;;;;;;;;;6219696;22;19950;-84
2022/03/04 11:41:10;;;;;;;;;;;;;;;;;;6244459;22;19920;-84
2022/03/04 11:43:36;;;;;;;;;;;;;;;;;;6244318;22;19923;-84
2022/03/04 11:46:02;;;;;;;;;;;;;;;;;;6218845;22;20003;-83
2022/03/04 11:48:28;;;;;;;;;;;;;;;;;;6221152;22;19919;-84
2022/03/04 11:50:55;;;;;;;;;;;;;;;;;;6246705;22;19919;-84
2022/03/04 11:53:25;;;;;;;;;;;;;;;;;;6235446;23;19927;-83
2022/03/04 11:55:51;;;;;;;;;;;;;;;;;;6247338;22;19915;-84
2022/03/04 11:58:17;;;;;;;;;;;;;;;;;;6246648;22;20578;-83
2022/03/04 12:00:44;;;;;;;;;;;;;;;;;;6246848;22;19994;-83
2022/03/04 12:03:10;;;;;;;;;;;;;;;;;;6222057;22;19919;-84
2022/03/04 12:05:38;;;;;;;;;;;;;;;;;;6221570;22;20002;-83
2022/03/04 12:08:04;;;;;;;;;;;;;;;;;;6245876;22;19999;-83
2022/03/04 12:10:30;;;;;;;;;;;;;;;;;;6247016;22;20021;-83
2022/03/04 12:12:56;;;;;;;;;;;;;;;;;;6221567;22;20225;-84
2022/03/04 12:15:23;;;;;;;;;;;;;;;;;;6246403;22;20331;-83
2022/03/04 12:17:50;;;;;;;;;;;;;;;;;;6219751;22;20010;-83
2022/03/04 12:20:16;;;;;;;;;;;;;;;;;;6220097;22;19923;-84
2022/03/04 12:22:42;;;;;;;;;;;;;;;;;;6245582;22;19965;-83
2022/03/04 12:25:08;;;;;;;;;;;;;;;;;;6220327;22;19931;-84
2022/03/04 12:27:35;;;;;;;;;;;;;;;;;;6219040;22;19915;-84
2022/03/04 12:30:01;;;;;;;;;;;;;;;;;;6244620;22;20362;-84
2022/03/04 12:32:27;;;;;;;;;;;;;;;;;;6244134;22;19923;-84
2022/03/04 12:34:53;;;;;;;;;;;;;;;;;;6219352;22;19916;-84
2022/03/04 12:37:19;;;;;;;;;;;;;;;;;;6219326;22;19942;-84
2022/03/04 12:39:50;;;;;;;;;;;;;;;;;;6245011;22;19969;-84
2022/03/04 12:42:16;;;;;;;;;;;;;;;;;;6244801;22;19919;-83
2022/03/04 12:44:42;;;;;;;;;;;;;;;;;;6243220;22;19965;-84
2022/03/04 12:47:08;;;;;;;;;;;;;;;;;;6217972;22;19924;-84
2022/03/04 12:49:35;;;;;;;;;;;;;;;;;;6244527;22;19919;-84
2022/03/04 12:52:01;;;;;;;;;;;;;;;;;;6243979;22;19973;-84
2022/03/04 12:54:30;;;;;;;;;;;;;;;;;;6244234;22;19923;-84
2022/03/04 12:56:56;;;;;;;;;;;;;;;;;;6218413;22;19986;-84
2022/03/04 12:59:22;;;;;;;;;;;;;;;;;;6232533;23;20331;-84
2022/03/04 13:01:50;;;;;;;;;;;;;;;;;;6219132;22;19919;-84
2022/03/04 13:04:16;;;;;;;;;;;;;;;;;;6219203;22;19919;-84
2022/03/04 13:06:41;;;;;;;;;;;;;;;;;;6219012;22;19915;-84
2022/03/04 13:09:07;;;;;;;;;;;;;;;;;;6243621;22;19926;-84
2022/03/04 13:11:33;;;;;;;;;;;;;;;;;;6219207;22;19927;-84
2022/03/04 13:14:00;;;;;;;;;;;;;;;;;;6219434;22;20350;-83
2022/03/04 13:16:26;;;;;;;;;;;;;;;;;;6244109;22;19915;-83
2022/03/04 13:18:52;;;;;;;;;;;;;;;;;;6243770;22;19938;-83
2022/03/04 13:21:19;;;;;;;;;;;;;;;;;;6221867;22;19930;-83
2022/03/04 13:23:56;;;;;;;;;;;;;;;;;;;;;
2022/03/04 13:26:23;;;;;;;;;;;;;;;;;;6246937;22;19919;-83
2022/03/04 13:28:51;;;;;;;;;;;;;;;;;;6245630;22;19919;-83
2022/03/04 13:31:19;;;;;;;;;;;;;;;;;;6246324;22;19941;-84
2022/03/04 13:33:46;;;;;;;;;;;;;;;;;;6220079;22;19986;-83
2022/03/04 13:36:13;;;;;;;;;;;;;;;;;;6218616;22;19920;-83
2022/03/04 13:38:40;;;;;;;;;;;;;;;;;;6220666;22;19919;-83
2022/03/04 13:41:07;;;;;;;;;;;;;;;;;;6220062;22;19926;-86
2022/03/04 13:43:36;;;;;;;;;;;;;;;;;;6243942;22;19925;-83
2022/03/04 13:46:03;;;;;;;;;;;;;;;;;;6242400;22;19919;-84
2022/03/04 13:48:29;;;;;;;;;;;;;;;;;;6244796;22;19965;-83
2022/03/04 13:50:59;;;;;;;;;;;;;;;;;;6245361;22;19957;-83
2022/03/04 13:53:27;;;;;;;;;;;;;;;;;;6246562;22;19920;-84
2022/03/04 13:55:54;;;;;;;;;;;;;;;;;;6270730;22;19915;-84
2022/03/04 13:58:20;;;;;;;;;;;;;;;;;;6220685;22;20324;-84
2022/03/04 14:00:46;;;;;;;;;;;;;;;;;;6246371;22;19998;-84
2022/03/04 14:03:12;;;;;;;;;;;;;;;;;;6245746;22;19957;-84
2022/03/04 14:05:38;;;;;;;;;;;;;;;;;;6221371;22;19921;-84
2022/03/04 14:08:04;;;;;;;;;;;;;;;;;;6220508;22;20414;-84
2022/03/04 14:10:31;;;;;;;;;;;;;;;;;;6220841;22;19926;-84
2022/03/04 14:12:57;;;;;;;;;;;;;;;;;;6246044;22;19926;-84
2022/03/04 14:15:23;;;;;;;;;;;;;;;;;;6219697;22;19916;-83
2022/03/04 14:17:49;;;;;;;;;;;;;;;;;;6243237;22;20014;-84
2022/03/04 14:20:15;;;;;;;;;;;;;;;;;;6218434;22;19949;-84
2022/03/04 14:22:41;;;;;;;;;;;;;;;;;;6244075;22;19919;-84
2022/03/04 14:25:07;;;;;;;;;;;;;;;;;;6243716;22;20256;-84
2022/03/04 14:27:33;;;;;;;;;;;;;;;;;;6218918;22;20291;-84
2022/03/04 14:30:00;;;;;;;;;;;;;;;;;;6216677;22;19915;-84
2022/03/04 14:32:26;;;;;;;;;;;;;;;;;;6245207;22;19919;-87
2022/03/04 14:34:53;;;;;;;;;;;;;;;;;;6246181;22;19919;-87
2022/03/04 14:37:21;;;;;;;;;;;;;;;;;;6221344;22;20251;-86
2022/03/04 14:39:48;;;;;;;;;;;;;;;;;;6220184;22;19990;-86
2022/03/04 14:42:15;;;;;;;;;;;;;;;;;;6221328;22;19915;-86
2022/03/04 14:44:42;;;;;;;;;;;;;;;;;;6245377;22;19994;-85
2022/03/04 14:47:10;;;;;;;;;;;;;;;;;;6243041;22;19931;-86
2022/03/04 14:49:37;;;;;;;;;;;;;;;;;;6218374;22;19915;-86
2022/03/04 14:52:05;;;;;;;;;;;;;;;;;;6240752;22;19923;-84
2022/03/04 14:54:31;;;;;;;;;;;;;;;;;;6267967;22;19938;-85
2022/03/04 14:56:58;;;;;;;;;;;;;;;;;;6231622;23;20325;-85
2022/03/04 14:59:25;;;;;;;;;;;;;;;;;;6234133;23;19919;-85
2022/03/04 15:01:51;;;;;;;;;;;;;;;;;;6237071;22;19922;-85
2022/03/04 15:04:22;;;;;;;;;;;;;;;;;;6211199;22;20659;-85
2022/03/04 15:06:49;;;;;;;;;;;;;;;;;;6217647;22;20031;-85
2022/03/04 15:09:16;;;;;;;;;;;;;;;;;;6218824;22;20006;-85
2022/03/04 15:11:43;;;;;;;;;;;;;;;;;;6242896;22;19923;-85
2022/03/04 15:14:09;;;;;;;;;;;;;;;;;;6241100;22;19946;-85
2022/03/04 15:16:36;;;;;;;;;;;;;;;;;;6241901;22;19919;-85
2022/03/04 15:19:04;;;;;;;;;;;;;;;;;;6242851;22;19919;-85
2022/03/04 15:21:31;;;;;;;;;;;;;;;;;;6216935;22;19962;-85
2022/03/04 15:24:07;;;;;;;;;;;;;;;;;;6241699;22;20316;-85
2022/03/04 15:26:34;;;;;;;;;;;;;;;;;;6240522;22;20609;-84
2022/03/04 15:29:01;;;;;;;;;;;;;;;;;;6269370;22;19926;-84
2022/03/04 15:31:29;;;;;;;;;;;;;;;;;;6242701;22;19982;-86
2022/03/04 15:33:56;;;;;;;;;;;;;;;;;;6242527;22;19973;-85
2022/03/04 15:36:23;;;;;;;;;;;;;;;;;;6243390;22;20248;-84
2022/03/04 15:38:50;;;;;;;;;;;;;;;;;;6243411;22;19923;-85
2022/03/04 15:41:23;;;;;;;;;;;;;;;;;;6240718;22;19953;-85
2022/03/04 15:43:51;;;;;;;;;;;;;;;;;;6242924;22;20352;-85
2022/03/04 15:46:19;;;;;;;;;;;;;;;;;;6243302;22;19915;-85
2022/03/04 15:48:47;;;;;;;;;;;;;;;;;;6243134;22;20015;-84
2022/03/04 15:51:14;;;;;;;;;;;;;;;;;;6241366;22;19923;-85
2022/03/04 15:53:41;;;;;;;;;;;;;;;;;;6217644;22;19919;-86
2022/03/04 15:56:07;;;;;;;;;;;;;;;;;;6218332;22;19938;-85
2022/03/04 15:58:35;;;;;;;;;;;;;;;;;;6218556;22;19941;-84
2022/03/04 16:01:02;;;;;;;;;;;;;;;;;;6218828;22;19916;-85
2022/03/04 16:03:29;;;;;;;;;;;;;;;;;;6243980;22;19978;-85
2022/03/04 16:05:56;;;;;;;;;;;;;;;;;;6243924;22;19919;-85
2022/03/04 16:08:23;;;;;;;;;;;;;;;;;;6217579;22;19946;-84
2022/03/04 16:10:51;;;;;;;;;;;;;;;;;;6217886;22;20002;-85
2022/03/04 16:13:20;;;;;;;;;;;;;;;;;;6217701;22;19925;-84
2022/03/04 16:15:47;;;;;;;;;;;;;;;;;;6243743;22;19919;-85
2022/03/04 16:18:14;;;;;;;;;;;;;;;;;;6216206;22;19926;-84
2022/03/04 16:20:41;;;;;;;;;;;;;;;;;;6243885;22;19919;-85
2022/03/04 16:23:12;;;;;;;;;;;;;;;;;;6241849;22;19926;-85
2022/03/04 16:25:40;;;;;;;;;;;;;;;;;;6216679;22;20010;-84
2022/03/04 16:28:07;;;;;;;;;;;;;;;;;;6269391;22;19915;-84
2022/03/04 16:30:34;;;;;;;;;;;;;;;;;;6238455;22;20356;-85
2022/03/04 16:33:02;;;;;;;;;;;;;;;;;;6241333;22;19920;-85
2022/03/04 16:35:30;;;;;;;;;;;;;;;;;;6242698;22;19924;-85
2022/03/04 16:38:01;;;;;;;;;;;;;;;;;;6217628;22;19922;-85
2022/03/04 16:40:28;;;;;;;;;;;;;;;;;;6218090;22;19919;-85
2022/03/04 16:42:55;;;;;;;;;;;;;;;;;;6218714;22;20318;-85